greek

ΠΛΗΡΟΦΟΡΙΕΣ ΚΑΙΡΟΥ

english


LGTT 182200Z 02007KT 9999 SCT025 22/21 Q1012 RMK FEW080
TAF LGTT 181000Z 1812/1821 17013KT 9999 FEW012 SCT025 TEMPO 1812/1815 17010G20KT PROB40 TEMPO 1812/1821 5000 RA SCT010 FEW018TCU BKN025 PROB30 TEMPO 1812/1815 4000 TSRA SCT008 FEW018CB BKN020

 Print LGTT local weather
 EMY AVIATION
 EMY LGTT
 Forecast LGTT
 EMY LGMG
 EMY LGEL
 EMY LGTG
 EMY LGAV
 EMY LGAT
 Latest METAR Reports (OGIMET)
 Latest TAF Reports (OGIMET)
 Greece Forecast
 www.windyty.com
 www.meteo.gr
 SAT 24h
 UK Met Office
 www.kifissiameteo.gr
 forecast.uoa.gr
 www.ntua.gr/weather/
 www.autorouter.eu/gramet
 http://www.jetplan.com/jeppesen/
 https://www.aviationweather.gov/sigmet/

Στο τηλέφωνο 210-3533689 μπορείτε να πάρετε πληροφορίες για την πτήση σας σε οποιοδήποτε σημείο της χώρας.